Terminal Aerodrome Forecast
Issued by NWS Cleveland, OH

Home | Current Version | Previous Version | Graphics & Text | Print | Product List | Glossary On
Versions: 1 2 3 4 5 6 7 8 9 10 11 12 13 14 15 16 17 18 19 20 21 22 23 24 25 26
000
FTUS41 KCLE 271457 AAB
TAFMFD
TAF AMD
KMFD 271457Z 2715/2812 12006KT P6SM SCT008 BKN012
      TEMPO 2715/2716 BKN008
     FM271800 07006KT P6SM BKN030
     FM272100 03005KT P6SM SCT045 BKN120
     FM280900 VRB03KT 5SM BR BKN010=

USA.gov is the U.S. government's official web portal to all federal, state and local government web resources and services.